Date,TemperatureHighF,TemperatureAvgF,TemperatureLowF,DewpointHighF,DewpointAvgF,DewpointLowF,HumidityHigh,HumidityAvg,HumidityLow,PressureMaxIn,PressureMinIn,WindSpeedMaxMPH,WindSpeedAvgMPH,GustSpeedMaxMPH,PrecipitationSumIn
2012-1-1,61,51,44,24,15,6,37,24,15,30.29,30.15,10,2,16,0.00
2012-1-2,61,50,43,26,17,10,33,27,18,30.33,30.23,8,2,15,0.00
2012-1-3,56,50,42,22,16,9,33,26,20,30.31,30.20,13,3,22,0.00
2012-1-4,53,46,41,20,13,9,33,27,20,30.31,30.20,13,5,25,0.00
2012-1-5,56,46,37,21,10,-6,30,23,12,30.30,30.06,9,3,16,0.00
2012-1-6,54,37,27,24,14,-12,65,42,8,30.15,30.03,3,0,11,0.00
2012-1-7,48,38,29,20,16,8,58,41,25,30.13,29.95,15,2,28,0.00
2012-1-8,35,30,26,25,17,1,86,60,29,30.18,29.89,15,8,34,0.00
2012-1-9,40,31,25,23,17,9,73,56,39,30.36,30.18,10,2,22,0.00
2012-1-10,51,35,24,25,18,7,73,53,24,30.38,30.18,2,0,9,0.00
2012-1-11,50,38,28,24,17,5,63,43,21,30.18,30.00,2,0,6,0.00
2012-1-12,44,34,26,23,16,6,64,48,23,30.14,30.05,2,0,5,0.00
2012-1-13,46,32,23,12,3,-13,56,32,9,30.40,30.12,4,1,12,0.00
2012-1-14,48,38,29,23,6,-12,54,28,8,30.39,30.21,6,1,12,0.00
2012-1-15,41,38,34,35,27,16,94,68,39,30.21,30.06,20,8,40,0.53
2012-1-16,36,34,32,35,33,30,100,95,90,30.18,29.99,20,12,41,1.32
2012-1-17,44,37,31,34,18,-2,92,52,18,30.34,30.16,17,7,33,0.19
2012-1-18,49,43,37,22,9,-4,43,25,13,30.33,30.16,11,4,24,0.00
2012-1-19,55,48,43,27,11,-7,37,23,11,30.16,29.95,11,3,23,0.00
2012-1-20,53,45,35,28,8,-6,62,24,11,30.03,29.92,12,2,27,0.00
2012-1-21,48,41,33,34,22,5,79,50,21,30.04,29.87,24,13,44,0.00
2012-1-22,44,36,29,29,4,-9,89,30,12,30.16,29.90,26,7,43,0.00
2012-1-23,48,39,28,35,25,-2,79,59,20,30.16,29.82,11,2,27,0.00
2012-1-24,35,30,26,29,25,20,92,81,63,30.24,29.79,18,7,28,0.03
2012-1-25,46,38,26,26,17,9,84,44,22,30.30,30.21,14,6,24,0.00
2012-1-26,59,50,42,23,13,5,40,23,17,30.24,29.96,14,5,20,0.00
2012-1-27,54,44,36,27,20,7,53,38,21,30.03,29.90,7,2,14,0.00
2012-1-28,49,42,37,26,23,19,60,48,38,30.27,30.03,9,3,19,0.00
2012-1-29,53,44,36,24,18,10,46,36,22,30.28,30.12,11,6,23,0.00
2012-1-30,49,44,39,18,15,10,37,30,25,30.12,29.96,20,13,41,0.00
2012-1-31,47,41,37,20,16,12,43,36,30,30.19,29.97,16,9,31,0.00
2012-2-1,48,41,32,18,12,8,45,31,21,30.20,29.99,16,7,33,0.00
2012-2-2,39,33,26,16,12,3,59,40,25,29.99,29.82,28,11,47,0.00
2012-2-3,40,31,22,21,15,8,67,52,38,30.17,29.98,8,3,13,0.00
2012-2-4,46,38,31,15,10,3,40,31,22,30.15,30.08,16,10,26,0.00
2012-2-5,48,41,37,20,16,14,41,37,31,30.08,30.00,16,9,22,0.00
2012-2-7,42,42,40,24,23,23,50,48,46,30.03,30.02,10,8,14,0.00
2012-2-8,45,40,36,34,27,23,79,61,47,30.15,29.98,17,8,28,0.00
2012-2-9,51,42,35,31,25,13,80,52,33,30.18,30.10,11,5,18,0.00
2012-2-10,53,42,34,26,20,1,59,42,22,30.22,30.11,10,2,14,0.00
2012-2-11,53,46,35,27,14,-8,58,29,12,30.13,29.78,35,13,53,0.00
2012-2-12,40,35,30,27,25,22,87,67,51,29.95,29.72,37,16,51,0.00
2012-2-13,41,34,27,29,24,17,92,68,47,30.03,29.92,15,8,35,0.01
2012-2-14,33,27,22,28,24,20,93,88,76,30.09,29.82,30,11,53,0.00
2012-2-15,36,28,16,21,16,7,92,61,34,30.25,30.10,20,8,36,0.11
2012-2-16,39,32,29,28,19,11,92,60,41,30.10,29.98,22,10,32,0.00
2012-2-17,37,30,28,32,27,24,95,90,80,30.21,30.01,9,3,18,0.12
2012-2-18,42,33,22,32,22,15,92,65,40,30.28,30.10,16,5,25,0.08
2012-2-19,37,33,30,28,25,15,87,72,49,30.10,29.86,19,12,35,0.00
2012-2-20,42,35,26,26,14,-10,81,43,17,30.19,30.02,12,4,22,0.01
2012-2-21,54,41,31,23,16,8,64,36,19,30.18,30.10,16,4,26,0.00
2012-2-22,54,45,36,24,15,4,40,30,18,30.16,29.93,11,4,19,0.00
2012-2-23,60,46,33,20,12,3,58,28,13,29.93,29.77,17,4,28,0.00
2012-2-24,54,40,30,27,22,15,72,50,27,30.19,29.89,10,2,15,0.00
2012-2-25,56,46,38,24,19,9,49,35,24,30.17,29.92,14,5,28,0.00
2012-2-26,50,44,40,23,19,12,49,36,28,29.92,29.82,18,7,34,0.00
2012-2-27,50,41,30,33,27,21,94,59,35,29.90,29.71,36,10,65,0.00
2012-2-28,38,29,22,29,20,8,94,71,34,30.29,29.71,33,12,66,0.00
2012-2-29,51,42,33,14,1,-17,31,18,9,30.29,30.05,14,6,26,0.00
2012-3-1,49,41,36,14,8,-2,38,25,14,30.05,29.87,19,10,33,0.00
2012-3-2,45,35,27,18,4,-16,44,28,9,30.19,29.85,18,6,31,0.00
2012-3-3,53,37,26,15,1,-16,55,23,13,30.37,30.20,12,2,21,0.00
2012-3-4,59,48,29,18,12,-2,61,25,11,30.32,30.10,12,4,21,0.00
2012-3-5,61,53,47,14,9,-2,20,17,11,30.10,29.91,16,8,34,0.00
2012-3-6,54,48,40,13,7,1,29,19,14,29.91,29.58,37,9,60,0.00
2012-3-7,40,32,19,21,12,2,63,45,29,30.02,29.56,36,15,66,0.00
2012-3-8,38,28,18,17,11,2,65,48,32,30.47,30.02,19,10,33,0.00
2012-3-9,36,30,23,18,15,13,68,55,42,30.44,30.17,15,10,35,0.00
2012-3-10,40,30,22,24,20,15,92,66,46,30.20,30.08,11,3,25,0.00
2012-3-11,51,42,32,20,14,6,60,33,20,30.19,30.05,13,5,25,0.00
2012-3-12,56,47,40,10,1,-11,28,15,9,30.07,29.99,14,8,28,0.00
2012-3-13,58,50,44,8,3,-2,16,14,10,30.02,29.93,13,6,22,0.00
2012-3-14,59,50,44,14,6,1,23,17,12,30.05,29.92,13,7,24,0.00
2012-3-15,61,49,35,17,8,-4,38,20,8,30.07,29.96,14,3,21,0.00
2012-3-16,61,50,31,14,7,-1,46,19,8,30.01,29.86,12,5,26,0.00
2012-3-17,51,46,41,23,15,6,49,29,20,29.87,29.61,41,19,62,0.01
2012-3-18,41,33,24,30,27,21,93,80,47,29.62,29.46,43,27,71,0.00
2012-3-19,23,20,13,19,16,10,92,86,78,30.15,29.86,5,2,17,0.00
2012-3-20,34,24,12,22,16,8,91,72,45,30.32,30.15,2,1,7,0.65
2012-3-21,57,38,25,26,18,2,69,46,25,30.31,30.07,10,2,19,0.09
2012-3-22,57,44,29,33,23,15,73,45,21,30.07,29.99,19,5,31,0.00
2012-3-23,56,49,43,29,24,19,46,37,24,30.04,29.94,19,7,34,0.00
2012-3-24,62,53,46,24,19,12,36,27,14,29.99,29.88,18,7,26,0.00
2012-3-25,58,50,44,26,17,11,49,27,18,29.89,29.79,26,12,43,0.00
2012-3-26,55,47,40,30,21,11,61,38,18,29.98,29.81,26,12,53,0.00
2012-3-27,60,51,44,24,13,1,43,23,12,30.02,29.92,17,8,31,0.00
2012-3-28,61,53,46,24,17,7,38,24,12,29.96,29.86,14,9,28,0.00
2012-3-29,60,52,43,22,11,-6,28,20,11,29.93,29.85,12,6,25,0.00
2012-3-30,62,52,41,26,19,7,42,28,18,29.95,29.88,10,3,16,0.00
2012-3-31,63,52,38,24,21,17,54,31,18,29.97,29.83,18,5,38,0.00
2012-4-1,52,44,31,30,19,10,53,38,24,29.83,29.62,20,9,39,0.00
2012-4-2,40,33,27,18,10,5,51,39,24,30.02,29.71,15,3,33,0.00
2012-4-3,50,38,26,19,12,4,53,35,22,30.12,30.01,14,4,21,0.00
2012-4-4,58,48,37,23,15,4,32,26,20,30.08,29.92,10,3,14,0.00
2012-4-5,64,53,47,18,13,8,30,20,13,29.92,29.77,17,7,30,0.00
2012-4-6,59,49,44,23,17,-1,36,27,13,30.00,29.80,16,6,33,0.00
2012-4-7,63,53,42,20,9,-17,31,18,6,30.06,29.98,12,2,21,0.00
2012-4-8,65,57,48,24,19,12,27,22,15,30.04,29.95,14,6,24,0.00
2012-4-9,69,57,49,23,18,14,30,22,14,29.96,29.85,14,4,23,0.00
2012-4-10,62,55,48,24,19,15,35,24,17,29.89,29.79,22,9,33,0.00
2012-4-11,52,46,38,37,29,22,76,52,31,29.89,29.75,25,15,45,0.00
2012-4-12,50,40,31,32,24,12,86,55,31,30.05,29.86,15,6,35,0.00
2012-4-13,52,44,37,24,10,-16,55,27,8,30.00,29.64,38,12,58,0.00
2012-4-14,37,28,21,31,19,7,100,72,29,30.08,29.55,35,13,67,0.02
2012-4-15,43,32,22,32,23,16,84,70,55,30.27,30.08,9,2,16,0.36
2012-4-16,55,43,33,32,25,21,75,51,27,30.26,30.16,9,4,18,0.00
2012-4-17,69,53,40,26,18,5,44,26,8,30.16,29.97,11,3,19,0.00
2012-4-18,68,58,52,20,14,8,22,18,10,29.99,29.86,15,5,26,0.00
2012-4-19,65,56,50,25,18,8,30,22,15,29.91,29.80,15,6,33,0.00
2012-4-20,76,58,46,31,28,20,49,32,17,29.96,29.87,11,3,19,0.00
2012-4-21,73,62,50,33,27,22,38,27,16,29.93,29.84,11,3,18,0.00
2012-4-22,80,64,51,31,23,8,33,22,7,29.89,29.79,10,3,17,0.00
2012-4-23,72,64,56,35,29,19,44,27,18,29.87,29.77,17,8,26,0.00
2012-4-24,70,61,54,37,29,19,48,31,16,29.87,29.77,18,8,26,0.00
2012-4-25,71,62,56,28,19,2,31,19,9,29.87,29.77,15,8,24,0.00
2012-4-26,57,49,42,40,25,11,80,41,16,29.91,29.70,24,13,52,0.00
2012-4-27,63,54,43,34,23,5,49,31,14,29.95,29.81,17,6,23,0.00
2012-4-28,64,53,36,35,25,10,53,34,18,29.81,29.71,11,2,23,0.00
2012-4-29,64,52,40,35,28,19,69,41,25,29.90,29.77,11,2,18,0.00
2012-4-30,66,54,39,36,30,26,67,41,25,29.95,29.85,12,2,20,0.00
2012-5-1,65,54,39,32,26,18,72,36,20,29.85,29.76,13,5,27,0.00
2012-5-2,61,53,45,36,22,10,64,31,15,29.87,29.73,16,8,32,0.00
2012-5-3,70,56,42,31,21,13,51,28,12,29.94,29.84,15,4,29,0.00
2012-5-4,67,59,51,24,19,4,34,22,12,29.92,29.86,16,7,29,0.00
2012-5-5,65,57,48,23,16,7,30,21,11,29.88,29.82,20,6,37,0.00
2012-5-6,63,56,48,22,16,9,34,21,16,29.86,29.80,21,9,36,0.00
2012-5-7,66,52,36,13,4,-10,24,15,9,29.86,29.78,13,2,26,0.00
2012-5-8,61,52,44,34,11,-2,63,22,11,29.86,29.76,19,5,33,0.00
2012-5-9,55,46,39,40,35,26,91,66,33,29.92,29.77,27,10,39,0.10
2012-5-10,64,54,44,38,32,26,70,44,32,29.92,29.80,10,5,21,0.00
2012-5-11,67,59,50,30,24,19,40,27,18,29.89,29.78,13,4,24,0.00
2012-5-12,68,60,52,24,18,13,27,20,13,29.96,29.88,18,7,29,0.00
2012-5-13,80,63,45,26,18,10,44,19,8,29.97,29.85,7,2,14,0.00
2012-5-14,74,63,52,23,18,9,27,18,9,29.88,29.80,12,4,22,0.00
2012-5-15,70,62,52,34,28,20,42,28,16,29.87,29.81,16,5,32,0.00
2012-5-16,73,65,56,32,25,18,30,22,15,29.83,29.72,17,8,31,0.00
2012-5-17,71,64,55,30,23,17,31,22,13,29.78,29.68,22,8,43,0.00
2012-5-18,67,60,52,33,27,24,43,29,20,29.70,29.60,24,11,43,0.00
2012-5-19,74,57,39,30,22,16,57,27,15,29.88,29.69,10,3,17,0.00
2012-5-20,75,64,52,30,20,12,29,19,11,29.88,29.83,11,3,19,0.00
2012-5-21,78,67,55,30,18,9,29,15,7,29.89,29.80,14,4,29,0.00
2012-5-22,81,66,44,28,12,-9,53,16,3,29.85,29.68,5,1,18,0.00
2012-5-23,72,65,57,30,22,13,33,20,13,29.69,29.49,27,13,51,0.00
2012-5-24,68,60,53,37,27,19,44,29,22,29.56,29.47,38,18,67,0.00
2012-5-25,64,58,52,37,30,24,54,35,23,29.63,29.52,34,24,56,0.00
2012-5-26,57,51,45,37,28,16,60,41,31,29.84,29.57,34,17,57,0.00
2012-5-27,63,52,42,20,11,-1,33,20,10,29.95,29.82,15,7,27,0.00
2012-5-28,68,59,50,15,10,4,19,14,8,29.91,29.84,15,8,24,0.00
2012-5-29,71,62,48,18,12,1,21,14,7,29.90,29.82,14,7,26,0.00
2012-5-30,80,63,49,26,15,5,24,16,6,29.85,29.77,11,2,20,0.00
2012-5-31,77,66,53,28,21,15,29,19,10,29.78,29.71,12,5,20,0.00
2012-6-1,81,72,61,32,23,18,24,16,12,29.76,29.64,11,3,21,0.00
2012-6-2,76,68,58,30,22,15,27,18,13,29.72,29.64,12,3,20,0.00
2012-6-3,72,62,45,34,26,20,49,26,16,29.85,29.69,15,4,25,0.00
2012-6-4,73,64,55,33,24,13,40,23,12,29.84,29.73,18,8,26,0.00
2012-6-5,73,64,51,32,27,16,35,25,17,29.76,29.67,13,5,27,0.00
2012-6-6,73,65,57,32,25,11,38,23,10,29.70,29.65,17,9,36,0.00
2012-6-7,73,65,57,26,17,6,27,16,8,29.79,29.66,16,7,30,0.00
2012-6-8,74,66,59,28,21,14,26,18,11,29.78,29.69,17,7,38,0.00
2012-6-9,74,65,57,27,21,13,31,19,11,29.69,29.61,20,9,52,0.00
2012-6-10,71,63,55,33,27,22,37,26,20,29.80,29.61,19,7,35,0.00
2012-6-11,76,65,52,37,30,21,45,28,19,29.87,29.78,13,4,21,0.00
2012-6-12,78,67,54,35,27,21,37,22,14,29.85,29.74,11,4,22,0.00
2012-6-13,78,68,56,34,24,17,30,19,15,29.74,29.64,11,4,23,0.00
2012-6-14,72,65,58,41,28,17,48,26,13,29.72,29.65,15,8,28,0.00
2012-6-15,72,63,54,42,31,20,58,32,15,29.76,29.63,17,11,31,0.00
2012-6-16,78,64,58,45,38,28,59,39,23,29.89,29.74,29,9,40,0.03
2012-6-17,79,69,57,45,37,30,45,32,22,29.87,29.72,14,4,23,0.00
2012-6-18,79,70,63,39,33,25,37,26,18,29.73,29.61,13,5,26,0.00
2012-6-19,76,68,62,28,18,10,27,15,9,29.65,29.59,17,6,33,0.00
2012-6-20,80,69,56,24,18,10,18,14,10,29.74,29.63,9,4,17,0.00
2012-6-21,82,72,60,37,27,12,29,19,12,29.76,29.68,10,3,17,0.00
2012-6-22,84,73,61,44,39,31,38,30,21,29.68,29.55,12,3,18,0.00
2012-6-23,82,72,62,42,37,32,38,29,22,29.69,29.56,9,3,20,0.00
2012-6-24,76,66,58,56,45,32,68,47,29,29.83,29.68,10,3,17,0.01
2012-6-25,77,67,57,56,50,45,76,57,34,29.86,29.75,9,2,18,0.01
2012-6-26,80,67,54,52,47,40,82,52,30,29.77,29.68,16,4,25,0.00
2012-6-27,82,70,61,54,45,38,68,42,30,29.80,29.68,14,4,28,0.09
2012-6-28,80,71,62,54,47,39,57,43,36,29.87,29.78,12,3,23,0.06
2012-6-29,81,71,62,52,48,43,62,45,31,29.84,29.73,11,4,25,0.00
2012-6-30,79,70,62,48,42,36,55,37,27,29.77,29.64,12,4,25,0.00
2012-7-1,81,71,64,45,40,30,43,32,25,29.70,29.61,13,3,24,0.00
2012-7-2,78,70,62,49,42,30,53,36,28,29.69,29.62,13,4,23,0.00
2012-7-3,71,62,54,55,52,48,92,68,54,29.77,29.62,15,4,23,0.32
2012-7-4,63,56,51,58,52,47,94,87,75,29.88,29.74,12,4,21,0.72
2012-7-5,68,60,50,57,50,41,86,70,55,29.95,29.85,10,3,20,0.00
2012-7-6,72,63,56,56,49,39,83,61,44,29.92,29.84,13,4,24,0.00
2012-7-7,75,66,58,50,38,28,64,37,25,29.91,29.82,11,4,20,0.00
2012-7-8,73,64,59,57,49,44,87,59,42,29.91,29.83,10,2,17,0.76
2012-7-9,76,69,60,55,48,44,68,49,36,29.92,29.79,12,4,22,0.04
2012-7-10,84,69,55,55,50,45,82,54,31,29.81,29.70,15,1,27,0.02
2012-7-11,75,66,60,57,52,47,80,62,43,29.80,29.70,13,6,25,0.00
2012-7-12,78,66,55,58,53,48,92,65,37,29.82,29.69,10,1,14,0.03
2012-7-13,70,63,59,61,58,53,93,84,62,29.83,29.78,15,4,26,0.00
2012-8-15,79,68,56,61,57,54,92,69,43,29.83,29.71,1,0,4,0.00
2012-8-16,67,61,55,59,54,50,95,80,57,29.94,29.79,3,0,6,0.00
2012-8-17,65,58,53,59,56,51,95,90,79,29.93,29.84,1,0,4,0.00
2012-8-18,69,60,53,62,57,51,96,88,74,29.93,29.80,2,0,5,0.00
2012-8-19,77,63,55,62,56,51,96,81,43,29.87,29.73,3,0,11,0.00
2012-8-20,75,61,54,60,56,52,97,86,49,29.88,29.80,3,0,7,0.00
2012-8-21,71,62,57,62,58,55,96,89,66,29.87,29.77,2,0,6,0.00
2012-8-22,66,58,54,58,56,52,96,91,73,29.89,29.80,10,1,18,0.00
2012-8-23,65,60,55,60,56,50,96,88,73,29.88,29.80,13,4,28,0.00
2012-8-24,68,61,54,59,54,49,93,78,57,29.87,29.76,11,2,18,0.00
2012-8-25,69,61,55,60,53,48,90,76,64,29.82,29.72,9,2,14,0.00
2012-8-26,72,63,58,60,54,48,91,72,58,29.88,29.78,8,1,13,0.00
2012-8-27,78,65,56,56,53,48,88,66,42,29.93,29.82,13,2,19,0.00
2012-8-28,78,66,59,56,48,34,72,54,32,29.90,29.79,15,6,30,0.00
2012-8-29,74,64,50,48,43,37,73,48,31,29.89,29.75,10,3,23,0.00
2012-8-30,72,64,57,59,50,43,85,62,37,29.81,29.72,8,2,16,0.00
2012-8-31,73,64,56,59,55,50,92,74,47,29.84,29.77,12,2,18,0.00
2012-9-1,75,65,57,62,54,43,84,67,36,29.88,29.79,7,2,13,0.00
2012-9-2,76,65,58,62,54,47,82,68,48,29.86,29.78,7,2,14,0.00
2012-9-3,73,64,57,61,56,50,89,74,62,29.90,29.82,11,4,18,0.00
2012-9-4,70,61,55,62,58,54,96,89,69,29.93,29.83,13,6,20,0.00
2012-9-5,70,62,56,61,55,48,92,80,62,29.90,29.79,12,5,18,0.00
2012-9-6,69,60,55,62,56,51,95,87,65,29.92,29.80,15,2,27,0.00
2012-9-7,67,60,57,62,57,52,95,89,75,29.92,29.83,9,3,14,0.00
2012-9-8,62,58,54,58,55,51,97,91,76,29.94,29.83,12,5,20,0.00
2012-9-9,60,58,56,55,53,52,87,83,79,29.95,29.90,17,7,24,0.00
2012-9-10,67,59,54,58,51,43,89,77,51,29.94,29.85,17,8,40,0.00
2012-9-11,61,56,53,54,50,45,94,82,65,29.93,29.85,13,6,30,0.00
2012-9-12,64,56,51,59,52,44,96,88,70,29.97,29.88,10,4,17,0.00
2012-9-13,66,57,50,56,50,44,94,76,59,30.05,29.95,13,3,23,0.00
2012-9-14,59,52,47,48,43,35,83,71,55,30.14,30.00,18,8,36,0.00
2012-9-15,67,54,48,45,36,28,60,50,28,30.15,30.06,14,5,28,0.51
2012-9-16,69,59,49,45,38,32,60,47,35,30.10,29.98,9,3,16,0.00
2012-9-17,72,58,48,49,42,26,83,57,34,29.98,29.89,6,1,12,0.00
2012-9-18,71,58,47,53,44,35,81,62,29,30.00,29.94,8,2,16,0.00
2012-9-19,74,59,45,46,36,28,87,48,20,30.08,29.99,11,2,25,0.00
2012-9-20,73,64,57,47,37,32,54,37,28,29.99,29.85,7,1,13,0.00
2012-9-21,73,64,58,47,37,33,56,38,29,29.90,29.82,7,2,14,0.00
2012-9-22,77,63,53,49,37,31,69,40,20,29.95,29.87,5,0,10,0.00
2012-9-23,74,65,57,40,35,31,45,34,24,29.99,29.91,13,3,19,0.00
2012-9-24,73,63,58,44,37,34,46,39,29,29.92,29.79,10,2,18,0.00
2012-9-25,70,60,51,44,41,35,76,50,33,29.83,29.75,6,2,15,0.00
2012-9-26,66,57,47,48,41,36,76,56,35,29.90,29.77,15,4,25,0.00
2012-9-27,67,55,45,44,40,38,85,60,40,30.00,29.89,6,1,12,0.00
2012-9-28,70,56,47,46,41,34,81,58,37,29.95,29.81,6,1,17,0.00
2012-9-29,68,58,48,46,41,31,77,55,29,30.00,29.90,11,3,17,0.00
2012-9-30,69,61,53,43,35,30,55,39,25,29.97,29.88,13,4,23,0.00
2012-10-1,77,61,48,38,30,24,58,34,15,29.92,29.85,12,2,18,0.00
2012-10-2,77,59,44,41,32,25,76,40,17,30.00,29.90,5,1,15,0.00
2012-10-3,70,63,57,38,31,26,40,30,24,29.96,29.87,11,3,21,0.00
2012-10-4,69,56,42,38,34,29,73,44,23,30.06,29.94,6,2,15,0.00
2012-10-5,69,56,38,34,26,14,51,31,16,30.03,29.92,11,3,21,0.00
2012-10-6,69,57,45,37,29,21,66,37,17,29.93,29.82,18,4,29,0.00
2012-10-7,66,58,50,41,35,30,53,42,34,29.86,29.80,16,5,29,0.00
2012-10-8,67,58,53,36,33,30,51,39,26,29.92,29.83,12,7,24,0.00
2012-10-9,66,57,45,40,32,22,73,42,21,29.93,29.85,10,4,17,0.00
2012-10-10,65,55,47,38,35,32,62,47,31,29.93,29.84,15,6,27,0.00
2012-10-11,56,52,47,48,38,24,92,60,31,29.87,29.81,24,14,40,0.10
2012-10-12,51,44,39,47,37,28,95,76,43,30.05,29.79,26,12,45,0.00
2012-10-13,56,45,35,36,29,19,80,55,30,30.17,30.05,10,4,22,0.00
2012-10-14,62,50,35,34,28,25,79,48,27,30.21,30.10,10,2,23,0.00
2012-10-15,72,49,37,35,26,14,72,44,13,30.10,29.95,2,0,6,0.00
2012-10-16,66,53,38,30,25,20,60,37,21,30.00,29.89,13,4,23,0.00
2012-10-17,66,56,48,44,31,19,71,39,27,29.91,29.81,9,3,16,0.00
2012-10-18,63,54,48,48,39,24,75,57,36,29.98,29.90,11,4,17,0.00
2012-10-19,69,58,48,37,29,18,49,34,21,29.97,29.82,7,2,12,0.00
2012-10-20,64,56,51,44,40,32,69,55,40,29.82,29.73,14,4,21,0.00
2012-10-21,59,52,47,42,36,31,77,57,37,29.84,29.73,19,9,34,0.00
2012-10-22,64,54,45,40,34,26,73,48,32,29.92,29.82,16,10,27,0.00
2012-10-23,64,55,50,38,34,28,61,45,27,29.86,29.79,16,9,33,0.00
2012-10-24,60,53,44,37,28,1,56,39,13,29.88,29.76,14,8,33,0.00
2012-10-25,67,51,38,20,9,-8,46,21,10,29.98,29.88,11,2,16,0.00
2012-10-26,62,51,34,26,18,12,47,28,19,30.03,29.95,10,2,14,0.00
2012-10-27,66,53,45,30,20,8,35,27,19,29.97,29.86,7,2,12,0.00
2012-10-28,65,55,47,30,25,10,39,31,22,30.02,29.93,8,3,15,0.00
2012-10-29,70,53,38,35,28,18,51,40,23,30.07,30.00,9,1,14,0.00
2012-10-30,70,50,35,26,21,13,62,35,14,30.16,30.06,8,0,12,0.00
2012-10-31,63,53,40,27,21,14,44,29,17,30.08,29.93,11,3,18,0.00
2012-11-1,66,48,36,27,23,18,61,40,16,30.08,29.99,3,0,10,0.00
2012-11-2,61,46,35,32,29,24,73,52,31,30.02,29.94,5,0,11,0.00
2012-11-3,59,48,41,36,32,27,76,55,40,30.11,30.00,10,2,17,0.00
2012-11-4,61,49,38,31,27,23,54,43,31,30.17,30.08,8,1,16,0.00
2012-11-5,67,47,35,27,22,18,62,40,16,30.25,30.16,3,0,7,0.00
2012-11-6,66,53,37,26,21,15,45,29,20,30.22,30.09,9,3,15,0.00
2012-11-7,65,56,48,30,25,20,35,30,22,30.10,29.89,16,4,27,0.00
2012-11-8,60,52,44,38,27,14,77,40,23,29.89,29.80,17,7,33,0.03
2012-11-9,47,44,39,43,40,38,96,89,75,29.83,29.70,35,16,65,0.69
2012-11-10,40,30,24,38,25,17,96,80,55,30.07,29.67,34,12,65,0.22
2012-11-11,37,28,17,19,8,-6,84,46,16,30.46,30.07,10,3,18,0.05
2012-11-12,57,45,35,20,4,-13,35,18,10,30.45,30.12,9,1,13,0.00
2012-11-13,56,47,40,19,7,-10,33,20,9,30.14,30.06,11,3,19,0.00
2012-11-14,59,47,35,20,12,-2,52,26,9,30.14,30.05,14,4,23,0.00
2012-11-15,56,45,31,26,20,10,69,40,18,30.23,30.10,15,4,22,0.00
2012-11-16,57,50,45,37,24,17,69,38,26,30.16,30.02,17,6,27,0.00
2012-11-17,52,48,44,38,36,30,73,63,53,30.09,30.02,12,4,21,0.00
2012-11-18,48,42,38,38,35,32,88,76,59,30.14,30.07,3,1,9,0.02
2012-11-19,57,42,28,39,33,18,91,74,47,30.27,30.12,3,0,9,0.00
2012-11-20,44,29,26,32,18,10,83,64,49,30.31,30.26,2,0,5,0.00
2012-11-21,60,48,38,35,27,2,67,47,10,30.17,30.01,3,1,12,0.00
2012-11-22,62,44,34,31,22,8,67,44,21,30.24,30.04,3,0,7,0.00
2012-11-23,61,46,35,31,28,25,76,51,29,30.32,30.22,9,2,20,0.00
2012-11-24,60,51,44,33,28,24,51,42,27,30.22,29.97,14,4,22,0.00
2012-11-25,57,50,45,30,20,11,51,32,19,29.97,29.85,21,8,38,0.00
2012-11-26,53,47,38,26,21,16,52,36,30,30.14,29.90,14,5,25,0.00
2012-11-27,56,48,40,31,25,20,47,40,31,30.22,30.12,16,6,25,0.00
2012-11-28,55,48,44,33,29,25,58,47,36,30.16,30.07,16,9,25,0.00
2012-11-29,55,46,41,33,22,0,68,41,16,30.17,30.08,13,3,21,0.00
2012-11-30,61,42,31,27,15,6,53,34,19,30.23,30.12,3,0,9,0.00
2012-12-1,63,42,32,26,14,6,44,33,13,30.22,30.14,2,0,4,0.00
2012-12-2,57,43,33,23,15,7,50,34,17,30.19,30.11,4,1,12,0.00
2012-12-3,58,43,34,33,25,8,82,50,21,30.19,30.08,2,0,7,0.00
2012-12-4,65,41,29,28,15,-7,80,39,6,30.35,30.19,2,0,6,0.00
2012-12-5,70,47,35,24,12,-2,43,27,8,30.31,30.04,2,0,5,0.00
2012-12-6,57,51,43,29,17,-7,54,29,8,30.04,29.80,12,6,23,0.00
2012-12-7,52,44,36,34,27,13,75,52,29,29.92,29.77,15,4,23,0.00
2012-12-8,52,43,36,29,24,16,66,47,31,29.96,29.88,16,8,24,0.00
2012-12-9,49,40,29,23,13,0,58,35,17,30.05,29.93,14,7,27,0.00
2012-12-10,48,38,29,16,8,-2,59,31,13,30.12,30.03,11,5,18,0.00
2012-12-11,44,37,30,12,8,2,42,30,22,30.11,30.02,18,6,31,0.00
2012-12-12,48,42,37,21,13,4,46,31,23,30.11,29.96,21,10,33,0.00
2012-12-13,44,38,34,35,25,16,95,62,40,29.98,29.68,29,19,48,1.30
2012-12-14,36,27,25,34,26,23,100,94,93,30.10,29.63,34,15,69,0.26
2012-12-15,31,29,26,30,28,25,97,95,94,30.13,30.02,15,2,27,0.00
2012-12-16,32,29,24,31,28,23,97,96,94,30.25,30.05,0,0,0,0.38
2012-12-17,41,35,29,39,29,9,96,81,37,30.27,30.07,14,3,19,0.15
2012-12-18,44,39,33,33,28,12,95,65,28,30.08,29.69,20,10,43,0.00
2012-12-19,33,26,19,32,11,-17,96,61,11,30.43,29.65,21,7,46,0.05
2012-12-20,45,37,26,10,-4,-12,48,19,10,30.47,30.23,11,3,22,0.16
2012-12-21,50,39,26,27,18,-1,55,43,23,30.25,30.16,14,3,23,0.00
2012-12-22,47,41,33,28,25,-100,82,55,38,30.16,30.04,20,3,35,0.00
2012-12-23,51,37,28,30,20,0,82,55,16,30.21,30.08,2,0,9,0.00
2012-12-24,45,37,30,30,22,1,92,59,21,30.09,29.83,6,2,17,0.00
2012-12-25,46,36,29,25,7,-19,83,35,8,30.10,29.94,8,1,19,0.00
2012-12-26,44,36,27,18,5,-12,63,30,11,30.03,29.83,5,1,18,0.00
2012-12-27,30,24,17,20,16,11,92,73,56,30.13,29.81,4,1,11,0.00
2012-12-28,37,23,17,22,11,1,86,61,39,30.33,30.12,3,0,7,0.00
2012-12-29,44,31,17,17,9,-1,57,41,19,30.32,30.08,21,3,34,0.00
2012-12-30,36,31,21,23,16,8,91,57,32,30.08,29.79,26,14,49,0.00
2012-12-31,26,20,14,21,16,7,92,85,57,30.32,29.89,12,4,25,0.12
2013-1-1,32,23,11,19,6,-5,78,50,24,30.41,30.30,8,2,13,0.08